createdAt,value
2023-05-07T00:03:15.171Z,11.40
2023-05-07T00:08:17.904Z,11.40
2023-05-07T00:13:20.711Z,11.40
2023-05-07T00:18:23.823Z,11.30
2023-05-07T00:23:26.405Z,11.40
2023-05-07T00:28:29.325Z,11.30
2023-05-07T00:33:31.978Z,11.30
2023-05-07T00:38:34.631Z,11.30
2023-05-07T00:43:37.521Z,11.20
2023-05-07T00:48:40.321Z,11.20
2023-05-07T00:53:43.418Z,11.20
2023-05-07T00:58:46.153Z,11.30
2023-05-07T01:03:49.207Z,11.30
2023-05-07T01:08:54.151Z,11.20
2023-05-07T01:13:58.255Z,11.30
2023-05-07T01:19:01.768Z,11.30
2023-05-07T01:24:06.092Z,11.20
2023-05-07T01:29:09.471Z,11.10
2023-05-07T01:34:14.356Z,11.10
2023-05-07T01:39:18.358Z,11.10
2023-05-07T01:44:21.319Z,11.00
2023-05-07T01:49:24.101Z,11.00
2023-05-07T01:54:30.757Z,11.00
2023-05-07T01:59:34.480Z,11.00
2023-05-07T02:04:37.860Z,11.00
2023-05-07T02:09:41.104Z,10.90
2023-05-07T02:14:44.660Z,10.90
2023-05-07T02:19:47.790Z,10.90
2023-05-07T02:24:50.465Z,10.90
2023-05-07T02:29:53.084Z,10.70
2023-05-07T02:34:55.792Z,10.40
2023-05-07T02:39:58.529Z,10.20
2023-05-07T02:45:01.406Z,10.10
2023-05-07T02:50:06.140Z,9.90
2023-05-07T02:55:09.595Z,9.80
2023-05-07T03:00:17.078Z,9.70
2023-05-07T03:05:27.799Z,9.60
2023-05-07T03:10:30.565Z,9.60
2023-05-07T03:15:33.630Z,9.60
2023-05-07T03:20:37.726Z,9.60
2023-05-07T03:25:40.841Z,9.50
2023-05-07T03:30:43.778Z,9.60
2023-05-07T03:35:46.515Z,9.60
2023-05-07T03:40:54.697Z,9.50
2023-05-07T03:45:57.497Z,9.40
2023-05-07T03:51:02.653Z,9.40
2023-05-07T03:56:08.721Z,9.30
2023-05-07T04:01:14.474Z,9.30
2023-05-07T04:06:18.708Z,9.20
2023-05-07T04:11:24.064Z,9.20
2023-05-07T04:16:27.008Z,9.10
2023-05-07T04:21:29.754Z,9.20
2023-05-07T04:26:33.972Z,9.30
2023-05-07T04:31:37.020Z,9.20
2023-05-07T04:36:40.385Z,9.10
2023-05-07T04:41:47.373Z,9.20
2023-05-07T04:46:50.320Z,9.10
2023-05-07T04:51:53.074Z,9.10
2023-05-07T04:56:58.314Z,9.10
2023-05-07T05:02:02.585Z,8.90
2023-05-07T05:07:06.039Z,8.70
2023-05-07T05:12:10.315Z,8.70
2023-05-07T05:17:14.407Z,8.60
2023-05-07T05:22:17.194Z,8.60
2023-05-07T05:27:19.993Z,8.60
2023-05-07T05:32:23.240Z,8.60
2023-05-07T05:37:31.438Z,8.60
2023-05-07T05:42:35.994Z,8.70
2023-05-07T05:47:40.494Z,8.70
2023-05-07T05:52:43.523Z,8.70
2023-05-07T05:57:47.465Z,8.70
2023-05-07T06:02:50.838Z,8.70
2023-05-07T06:07:59.003Z,8.60
2023-05-07T06:13:06.129Z,8.60
2023-05-07T06:18:10.790Z,8.60
2023-05-07T06:23:15.423Z,8.50
2023-05-07T06:28:19.713Z,8.40
2023-05-07T06:33:23.105Z,8.40
2023-05-07T06:38:26.438Z,8.10
2023-05-07T06:43:29.465Z,8.10
2023-05-07T06:49:10.523Z,8.20
2023-05-07T06:54:13.511Z,8.10
2023-05-07T06:59:17.735Z,8.10
2023-05-07T07:04:20.753Z,8.20
2023-05-07T07:09:30.349Z,8.10
2023-05-07T07:14:34.286Z,8.00
2023-05-07T07:19:37.390Z,8.10
2023-05-07T07:24:40.624Z,8.20
2023-05-07T07:29:46.423Z,8.20
2023-05-07T07:34:49.384Z,8.20
2023-05-07T07:39:52.698Z,8.20
2023-05-07T07:44:58.357Z,8.20
2023-05-07T07:50:04.415Z,8.20
2023-05-07T07:55:08.224Z,8.20
2023-05-07T08:00:12.827Z,8.20
2023-05-07T08:05:26.319Z,8.20
2023-05-07T08:10:30.165Z,8.30
2023-05-07T08:15:40.551Z,8.20
2023-05-07T08:20:44.226Z,8.30
2023-05-07T08:25:52.535Z,8.30
2023-05-07T08:30:57.940Z,8.40
2023-05-07T08:36:01.439Z,8.50
2023-05-07T08:41:04.782Z,8.50
2023-05-07T08:46:10.494Z,8.40
2023-05-07T08:51:22.344Z,8.50
2023-05-07T08:56:26.425Z,8.40
2023-05-07T09:01:30.805Z,8.40
2023-05-07T09:06:35.183Z,8.40
2023-05-07T09:11:38.364Z,8.40
2023-05-07T09:16:41.315Z,8.30
2023-05-07T09:21:45.463Z,8.30
2023-05-07T09:26:49.344Z,8.20
2023-05-07T09:31:52.375Z,8.10
2023-05-07T09:36:57.968Z,8.10
2023-05-07T09:42:02.605Z,8.10
2023-05-07T09:47:11.775Z,8.10
2023-05-07T09:52:22.003Z,7.80
2023-05-07T09:57:29.904Z,8.10
2023-05-07T10:02:38.295Z,8.20
2023-05-07T10:07:42.077Z,8.20
2023-05-07T10:12:46.923Z,8.10
2023-05-07T10:18:00.770Z,8.20
2023-05-07T10:23:06.663Z,8.40
2023-05-07T10:28:18.345Z,8.30
2023-05-07T10:33:27.520Z,8.20
2023-05-07T10:38:31.268Z,8.30
2023-05-07T10:43:43.766Z,8.50
2023-05-07T10:49:04.170Z,8.50
2023-05-07T10:54:37.497Z,8.50
2023-05-07T10:59:45.264Z,8.70
2023-05-07T11:05:23.062Z,8.40
2023-05-07T11:10:57.668Z,8.20
2023-05-07T11:16:25.476Z,8.40
2023-05-07T11:21:41.367Z,8.10
2023-05-07T11:26:57.217Z,8.10
2023-05-07T11:32:04.563Z,8.30
2023-05-07T11:37:17.950Z,8.40
2023-05-07T11:42:47.627Z,8.30
2023-05-07T11:47:50.655Z,8.10
2023-05-07T11:52:53.898Z,8.10
2023-05-07T11:57:56.691Z,8.10
2023-05-07T12:03:07.311Z,8.10
2023-05-07T12:08:10.479Z,8.30
2023-05-07T12:13:20.997Z,8.40
2023-05-07T12:18:24.996Z,8.30
2023-05-07T12:23:28.515Z,8.50
2023-05-07T12:28:32.063Z,8.40
2023-05-07T12:33:36.661Z,8.80
2023-05-07T12:38:41.228Z,8.90
2023-05-07T12:43:47.321Z,9.00
2023-05-07T12:48:50.262Z,8.60
2023-05-07T12:53:58.322Z,8.70
2023-05-07T12:59:01.173Z,8.70
2023-05-07T13:04:05.486Z,8.40
2023-05-07T13:09:08.344Z,8.40
2023-05-07T13:14:11.053Z,8.30
2023-05-07T13:19:13.827Z,8.40
2023-05-07T13:24:16.489Z,8.20
2023-05-07T13:29:19.365Z,8.10
2023-05-07T13:34:22.269Z,8.00
2023-05-07T13:39:25.062Z,7.90
2023-05-07T13:44:28.603Z,8.10
2023-05-07T13:49:31.586Z,8.00
2023-05-07T13:54:34.275Z,7.90
2023-05-07T13:59:37.137Z,8.10
2023-05-07T14:04:39.970Z,8.10
2023-05-07T14:09:42.781Z,8.20
2023-05-07T14:14:46.779Z,8.10
2023-05-07T14:19:49.431Z,8.10
2023-05-07T14:25:05.315Z,8.00
2023-05-07T14:30:10.117Z,8.40
2023-05-07T14:35:13.197Z,8.50
2023-05-07T14:40:16.336Z,8.50
2023-05-07T14:45:19.584Z,8.40
2023-05-07T14:50:22.907Z,8.20
2023-05-07T14:55:25.840Z,8.40
2023-05-07T15:00:29.553Z,8.50
2023-05-07T15:05:32.648Z,8.40
2023-05-07T15:10:42.525Z,8.00
2023-05-07T15:15:46.668Z,8.00
2023-05-07T15:20:49.729Z,7.90
2023-05-07T15:25:52.758Z,7.70
2023-05-07T15:30:56.754Z,7.70
2023-05-07T15:36:00.769Z,7.70
2023-05-07T15:41:04.148Z,7.70
2023-05-07T15:46:07.001Z,7.70
2023-05-07T15:51:10.856Z,7.70
2023-05-07T15:56:13.947Z,7.50
2023-05-07T16:01:17.112Z,7.50
2023-05-07T16:06:20.354Z,7.40
2023-05-07T16:11:23.221Z,7.30
2023-05-07T16:16:30.272Z,7.30
2023-05-07T16:21:33.727Z,7.20
2023-05-07T16:26:36.990Z,7.20
2023-05-07T16:31:40.038Z,7.30
2023-05-07T16:36:43.198Z,7.30
2023-05-07T16:41:49.209Z,7.20
2023-05-07T16:46:53.477Z,7.30
2023-05-07T16:51:56.315Z,7.20
2023-05-07T16:57:00.189Z,7.20
2023-05-07T17:02:03.058Z,7.20
2023-05-07T17:07:06.857Z,7.20
2023-05-07T17:12:09.659Z,7.20
2023-05-07T17:17:12.327Z,7.20
2023-05-07T17:22:15.111Z,7.10
2023-05-07T17:27:18.023Z,7.00
2023-05-07T17:32:21.269Z,7.00
2023-05-07T17:37:24.339Z,6.90
2023-05-07T17:42:27.217Z,6.90
2023-05-07T17:47:30.057Z,7.00
2023-05-07T17:52:33.227Z,7.00
2023-05-07T17:57:37.309Z,6.90
2023-05-07T18:02:41.922Z,6.90
2023-05-07T18:07:44.697Z,6.80
2023-05-07T18:12:47.522Z,6.70
2023-05-07T18:17:50.569Z,6.80
2023-05-07T18:22:53.756Z,6.70
2023-05-07T18:27:56.893Z,6.70
2023-05-07T18:33:00.095Z,6.70
2023-05-07T18:38:03.143Z,6.60
2023-05-07T18:43:07.363Z,6.60
2023-05-07T18:48:10.434Z,6.60
2023-05-07T18:53:13.594Z,6.60
2023-05-07T18:58:18.527Z,6.60
2023-05-07T19:03:21.600Z,6.60
2023-05-07T19:08:24.744Z,6.60
2023-05-07T19:13:27.970Z,6.50
2023-05-07T19:18:32.171Z,6.60
2023-05-07T19:23:41.791Z,6.60
2023-05-07T19:28:45.726Z,6.50
2023-05-07T19:33:51.424Z,6.50
2023-05-07T19:38:55.072Z,6.40
2023-05-07T19:43:58.252Z,6.40
2023-05-07T19:49:01.829Z,6.40
2023-05-07T19:54:05.197Z,6.30
2023-05-07T19:59:08.659Z,6.40
2023-05-07T20:04:11.802Z,6.40
2023-05-07T20:09:14.971Z,6.40
2023-05-07T20:14:17.765Z,6.30
2023-05-07T20:19:20.762Z,6.30
2023-05-07T20:24:23.855Z,6.40
2023-05-07T20:29:27.639Z,6.40
2023-05-07T20:34:31.430Z,6.40
2023-05-07T20:39:34.389Z,6.30
2023-05-07T20:44:37.391Z,6.30
2023-05-07T20:49:40.279Z,6.30
2023-05-07T20:54:44.692Z,6.30
2023-05-07T20:59:47.631Z,6.40
2023-05-07T21:04:52.667Z,6.30
2023-05-07T21:09:55.754Z,6.30
2023-05-07T21:14:58.474Z,6.30
2023-05-07T21:20:02.558Z,6.20
2023-05-07T21:25:05.872Z,6.20
2023-05-07T21:30:09.315Z,6.20
2023-05-07T21:35:12.225Z,6.30
2023-05-07T21:40:15.405Z,6.20
2023-05-07T21:45:18.265Z,6.30
2023-05-07T21:50:22.441Z,6.30
2023-05-07T21:55:25.152Z,6.30
2023-05-07T22:00:27.874Z,6.30
2023-05-07T22:05:30.793Z,6.30
2023-05-07T22:10:33.684Z,6.30
2023-05-07T22:15:45.509Z,6.30
2023-05-07T22:20:56.330Z,6.20
2023-05-07T22:25:59.423Z,6.30
2023-05-07T22:31:02.182Z,6.30
2023-05-07T22:36:05.352Z,6.20
2023-05-07T22:41:08.063Z,6.20
2023-05-07T22:46:11.311Z,6.20
2023-05-07T22:51:14.802Z,6.20
2023-05-07T22:56:17.510Z,6.10
2023-05-07T23:01:21.855Z,6.10
2023-05-07T23:06:24.700Z,6.10
2023-05-07T23:11:28.701Z,6.00
2023-05-07T23:16:31.749Z,6.00
2023-05-07T23:21:34.520Z,6.10
2023-05-07T23:26:37.191Z,6.00
2023-05-07T23:31:39.860Z,6.00
2023-05-07T23:36:42.595Z,6.00
2023-05-07T23:41:45.321Z,6.00
2023-05-07T23:46:48.611Z,5.90
2023-05-07T23:51:51.358Z,5.90
2023-05-07T23:56:54.181Z,5.90
